Houlton, Maine
Current Conditions -  °F | °C
As of 12:53 PM on Monday 24 Nov 2014 (Local Time) from KHUL Reporting Station
Light Rain Light Rain  
Wind Chill: 44°   Ceiling: 800
Heat Index: 49°   Visibility: 2.5mi
Dew Point: 46°   Wind: 12mph
Humidity: 90%   Direction: 140°SE
Pressure: 29.67"   Gusts: 23mph
Location:  46.13°N, 67.84°W
Report Text: KHUL 241753Z AUTO 14010G20KT 2 1/2SM -RA BR OVC008 09/08 A2967 RMK AO2 CIG 006V011 SLP051 P0007 60017 T00940078 10094 20061 58049
Loading
Personal Weather Stations






























Interactive Weather Map New forecast layout! Learn more

10-Day Weather Forecast

Advertisements
Track Severe Weather on mobile